Time;durP1;ratioP1;P1;durP2;ratioP2;P2;SDS_P1;SDS_P2;PMS_P1;PMS_P2;Temp;Humidity;BMP_temperature;BMP_pressure;BME280_temperature;BME280_humidity;BME280_pressure;Samples;Min_cycle;Max_cycle;Signal;HPM_P1;HPM_P2
2023/08/26 00:00:58;;;;;;;16.13;11.18;;;;;;;22.34;78.94;94581.56;4992377;28;20360;-77
2023/08/26 00:03:25;;;;;;;15.00;10.98;;;;;;;22.30;79.33;94578.00;4992369;28;20264;-76
2023/08/26 00:05:52;;;;;;;14.13;9.85;;;;;;;22.26;79.04;94586.34;4992421;28;20218;-77
2023/08/26 00:08:18;;;;;;;14.93;10.40;;;;;;;22.21;78.61;94584.00;4992038;28;20209;-77
2023/08/26 00:10:47;;;;;;;12.52;8.75;;;;;;;22.25;78.47;94586.75;4992356;28;20213;-77
2023/08/26 00:13:13;;;;;;;12.38;8.95;;;;;;;22.23;78.84;94589.13;4992259;28;20225;-77
2023/08/26 00:15:40;;;;;;;13.13;8.88;;;;;;;22.21;79.12;94591.47;4992151;28;20698;-76
2023/08/26 00:18:08;;;;;;;14.45;8.95;;;;;;;22.16;80.12;94583.63;4991919;28;20272;-77
2023/08/26 00:20:35;;;;;;;13.82;10.07;;;;;;;22.13;79.97;94588.00;4992060;28;20222;-76
2023/08/26 00:23:02;;;;;;;14.43;8.40;;;;;;;22.16;79.59;94583.63;4991947;28;20205;-77
2023/08/26 00:25:29;;;;;;;12.55;9.25;;;;;;;22.23;79.53;94578.06;4993515;28;20293;-76
2023/08/26 00:27:57;;;;;;;14.73;8.60;;;;;;;22.13;80.03;94578.94;4991495;28;20221;-77
2023/08/26 00:30:25;;;;;;;12.18;8.45;;;;;;;22.06;79.49;94581.72;4992218;28;20266;-77
2023/08/26 00:32:52;;;;;;;13.35;8.88;;;;;;;22.06;79.01;94584.47;4991797;28;20603;-76
2023/08/26 00:35:19;;;;;;;17.33;9.50;;;;;;;21.94;79.42;94572.66;4992294;28;20547;-77
2023/08/26 00:37:46;;;;;;;14.75;9.10;;;;;;;21.91;79.66;94573.47;4991805;28;20202;-76
2023/08/26 00:40:12;;;;;;;14.73;9.07;;;;;;;21.84;79.61;94572.72;4991308;28;20319;-76
2023/08/26 00:42:39;;;;;;;13.07;8.93;;;;;;;21.90;79.33;94576.63;4992110;28;20665;-76
2023/08/26 00:45:08;;;;;;;19.42;10.05;;;;;;;22.00;80.63;94575.06;4991932;28;20215;-76
2023/08/26 00:47:37;;;;;;;18.45;11.52;;;;;;;22.04;80.32;94571.06;4991901;28;20250;-76
2023/08/26 00:50:04;;;;;;;13.90;9.32;;;;;;;21.90;80.08;94571.09;4991455;28;20212;-76
2023/08/26 00:52:31;;;;;;;14.70;9.88;;;;;;;21.87;80.19;94572.69;4991414;28;20248;-76
2023/08/26 00:54:58;;;;;;;19.00;9.73;;;;;;;21.78;79.84;94574.31;4990911;28;20268;-77
2023/08/26 00:57:25;;;;;;;12.68;8.60;;;;;;;21.78;80.82;94575.09;4991456;28;20212;-77
2023/08/26 00:59:52;;;;;;;14.48;9.32;;;;;;;21.72;82.10;94559.38;4991682;28;20237;-76
2023/08/26 01:02:20;;;;;;;12.52;8.85;;;;;;;21.75;80.89;94556.59;4991537;28;20209;-76
2023/08/26 01:04:47;;;;;;;17.30;9.10;;;;;;;21.63;81.82;94568.06;4991790;28;20590;-77
2023/08/26 01:07:14;;;;;;;13.98;9.60;;;;;;;21.56;81.93;94579.13;4991366;28;20225;-76
2023/08/26 01:09:41;;;;;;;18.80;9.43;;;;;;;21.61;80.81;94570.44;4991514;28;20568;-76
2023/08/26 01:12:18;;;;;;;11.38;8.15;;;;;;;21.64;80.90;94558.63;4991058;28;20295;-76
2023/08/26 01:14:53;;;;;;;15.10;9.43;;;;;;;21.56;80.82;94562.59;4991116;28;20237;-76
2023/08/26 01:17:22;;;;;;;12.10;8.23;;;;;;;21.57;81.09;94569.69;4990852;28;20279;-76
2023/08/26 01:19:49;;;;;;;11.85;7.80;;;;;;;21.42;81.50;94565.41;4990405;28;20277;-76
2023/08/26 01:22:20;;;;;;;12.57;8.90;;;;;;;21.40;81.57;94565.00;4990208;28;20256;-76
2023/08/26 01:24:48;;;;;;;12.63;8.50;;;;;;;21.34;81.70;94572.88;4990543;28;20221;-76
2023/08/26 01:27:15;;;;;;;14.32;8.75;;;;;;;21.34;81.17;94561.84;4990513;28;20366;-76
2023/08/26 01:29:42;;;;;;;13.32;8.30;;;;;;;21.34;81.87;94564.63;4990428;28;20568;-76
2023/08/26 01:32:18;;;;;;;13.63;8.55;;;;;;;21.31;81.25;94564.66;4990378;28;20703;-76
2023/08/26 01:34:50;;;;;;;12.45;8.52;;;;;;;21.30;82.24;94560.31;4990386;28;20217;-77
2023/08/26 01:37:20;;;;;;;12.20;8.52;;;;;;;21.29;81.98;94559.53;4990556;28;20204;-76
2023/08/26 01:39:51;;;;;;;13.43;9.40;;;;;;;21.18;83.31;94559.50;4990351;28;20276;-76
2023/08/26 01:42:20;;;;;;;15.15;8.73;;;;;;;21.03;83.88;94552.47;4990139;28;20296;-77
2023/08/26 01:44:48;;;;;;;13.98;9.77;;;;;;;21.05;83.56;94566.59;4990146;28;20296;-77
2023/08/26 01:47:16;;;;;;;14.43;9.00;;;;;;;21.00;83.40;94564.28;5002955;28;20204;-77
2023/08/26 01:49:43;;;;;;;12.38;9.07;;;;;;;21.01;83.87;94563.09;4977137;28;20715;-76
2023/08/26 01:52:10;;;;;;;12.80;8.93;;;;;;;20.83;84.83;94576.06;4989888;28;20213;-76
2023/08/26 01:54:37;;;;;;;15.55;8.75;;;;;;;20.88;83.53;94572.94;4990446;28;20268;-76
2023/08/26 01:57:05;;;;;;;19.70;9.57;;;;;;;20.78;84.92;94573.72;4989322;28;20214;-76
2023/08/26 01:59:32;;;;;;;17.38;9.57;;;;;;;20.60;86.52;94570.19;4990357;28;20658;-76
2023/08/26 02:01:59;;;;;;;13.23;9.05;;;;;;;20.51;87.33;94582.34;4989703;28;20233;-76
2023/08/26 02:04:26;;;;;;;17.63;8.80;;;;;;;20.53;87.00;94568.22;4990007;28;20295;-76
2023/08/26 02:06:53;;;;;;;14.43;8.32;;;;;;;20.63;86.92;94572.94;4989878;28;20259;-77
2023/08/26 02:09:20;;;;;;;17.60;8.63;;;;;;;20.63;86.75;94569.41;4993374;28;20220;-76
2023/08/26 02:11:46;;;;;;;13.48;9.35;;;;;;;20.62;87.10;94556.81;4993421;28;20248;-76
2023/08/26 02:14:14;;;;;;;11.30;9.10;;;;;;;20.64;87.36;94566.25;4953084;28;1161588;-76
2023/08/26 02:16:41;;;;;;;15.27;9.65;;;;;;;20.57;87.57;94556.03;4994984;28;20920;-76
2023/08/26 02:19:08;;;;;;;13.73;9.80;;;;;;;20.53;87.74;94557.97;4994394;28;20209;-76
2023/08/26 02:21:35;;;;;;;20.90;10.27;;;;;;;20.44;88.63;94565.06;4994577;28;20240;-76
2023/08/26 02:24:01;;;;;;;13.25;9.57;;;;;;;20.42;88.02;94545.41;4994407;28;20562;-76
2023/08/26 02:26:28;;;;;;;12.57;9.38;;;;;;;20.39;87.21;94552.47;4994684;28;20682;-76
2023/08/26 02:28:55;;;;;;;15.18;9.77;;;;;;;20.43;86.92;94544.22;4994235;28;20222;-76
2023/08/26 02:31:23;;;;;;;13.10;9.13;;;;;;;20.52;87.62;94550.91;4994410;28;20217;-76
2023/08/26 02:33:50;;;;;;;17.08;9.30;;;;;;;20.55;87.18;94544.63;4994264;28;20213;-76
2023/08/26 02:36:17;;;;;;;15.27;9.40;;;;;;;20.49;87.02;94546.22;4994208;28;20224;-76
2023/08/26 02:38:43;;;;;;;12.88;9.07;;;;;;;20.45;87.76;94545.41;4994434;28;20214;-76
2023/08/26 02:41:10;;;;;;;15.15;9.60;;;;;;;20.36;88.15;94544.22;4993702;28;20233;-77
2023/08/26 02:43:37;;;;;;;14.82;9.95;;;;;;;20.31;88.72;94545.38;4994520;28;20244;-76
2023/08/26 02:46:04;;;;;;;16.00;9.10;;;;;;;20.25;89.21;94544.16;4993846;28;20623;-76
2023/08/26 02:48:32;;;;;;;16.65;9.57;;;;;;;20.22;89.76;94550.47;4994364;28;20550;-75
2023/08/26 02:50:59;;;;;;;17.45;9.93;;;;;;;20.17;89.93;94551.63;4993981;28;20205;-76
2023/08/26 02:53:27;;;;;;;15.45;9.73;;;;;;;20.19;88.52;94543.00;4994225;28;20217;-77
2023/08/26 02:55:55;;;;;;;15.68;8.50;;;;;;;20.29;87.61;94542.22;4993997;28;20209;-76
2023/08/26 02:58:22;;;;;;;12.00;8.98;;;;;;;20.37;86.78;94548.53;4993849;28;20250;-77
2023/08/26 03:00:49;;;;;;;13.90;9.68;;;;;;;20.45;86.66;94545.41;4993763;28;20234;-77
2023/08/26 03:03:16;;;;;;;11.52;8.75;;;;;;;20.52;86.95;94555.63;4993502;28;20268;-77
2023/08/26 03:05:44;;;;;;;13.55;9.15;;;;;;;20.50;86.63;94558.75;4993708;28;20213;-76
2023/08/26 03:08:11;;;;;;;14.13;9.43;;;;;;;20.51;86.26;94554.84;4993813;28;20681;-76
2023/08/26 03:10:38;;;;;;;13.80;9.05;;;;;;;20.43;87.42;94550.50;4993612;28;20205;-76
2023/08/26 03:13:06;;;;;;;13.60;9.77;;;;;;;20.37;88.02;94549.31;4993616;28;20662;-76
2023/08/26 03:15:33;;;;;;;13.25;9.55;;;;;;;20.36;88.05;94553.28;4993266;28;20809;-76
2023/08/26 03:17:59;;;;;;;15.20;9.55;;;;;;;20.34;88.30;94561.09;4993159;28;20649;-76
2023/08/26 03:20:26;;;;;;;13.35;9.18;;;;;;;20.29;87.87;94568.94;4999157;28;20217;-76
2023/08/26 03:22:54;;;;;;;17.55;9.82;;;;;;;20.33;87.43;94567.78;4994719;28;20277;-76
2023/08/26 03:25:21;;;;;;;14.57;9.73;;;;;;;20.32;87.05;94568.16;4992848;28;20210;-76
2023/08/26 03:27:48;;;;;;;15.27;9.38;;;;;;;20.35;87.77;94579.19;4992649;28;20211;-76
2023/08/26 03:30:15;;;;;;;16.85;9.52;;;;;;;20.36;87.55;94575.28;4991653;28;20213;-76
2023/08/26 03:32:41;;;;;;;14.80;9.82;;;;;;;20.36;86.61;94574.50;4993397;28;20210;-77
2023/08/26 03:35:09;;;;;;;16.08;9.27;;;;;;;20.43;87.18;94575.28;4992801;28;20205;-76
2023/08/26 03:37:36;;;;;;;16.48;10.10;;;;;;;20.34;87.94;94572.09;4992949;28;20205;-76
2023/08/26 03:40:08;;;;;;;15.45;10.68;;;;;;;20.27;88.81;94580.34;4992383;28;20248;-77
2023/08/26 03:42:35;;;;;;;17.30;9.63;;;;;;;20.28;89.05;94589.38;4992896;28;20518;-76
2023/08/26 03:45:04;;;;;;;14.35;9.07;;;;;;;20.33;87.57;94591.75;4992811;28;20209;-76
2023/08/26 03:47:31;;;;;;;14.32;9.93;;;;;;;20.35;87.42;94584.69;4992371;28;20214;-77
2023/08/26 03:49:58;;;;;;;15.07;8.60;;;;;;;20.39;86.98;94591.00;4992473;28;20217;-77
2023/08/26 03:52:25;;;;;;;17.77;9.20;;;;;;;20.41;87.35;94588.63;4988596;28;20227;-76
2023/08/26 03:54:52;;;;;;;12.65;9.75;;;;;;;20.46;87.07;94579.22;4993240;28;20864;-77
2023/08/26 03:57:20;;;;;;;13.65;9.07;;;;;;;20.57;87.06;94589.06;4992365;28;20582;-77
2023/08/26 03:59:47;;;;;;;17.52;10.07;;;;;;;20.77;86.27;94588.69;4992320;28;20209;-77
2023/08/26 04:02:14;;;;;;;14.98;10.38;;;;;;;21.09;85.20;94589.44;4990552;28;20233;-76
2023/08/26 04:04:40;;;;;;;19.33;10.43;;;;;;;21.51;83.80;94587.81;4975487;28;20237;-76
2023/08/26 04:07:08;;;;;;;16.08;9.48;;;;;;;22.06;81.66;94585.25;4992380;28;20222;-76
2023/08/26 04:09:35;;;;;;;15.82;9.48;;;;;;;22.60;79.22;94585.72;4992639;28;20206;-76
2023/08/26 04:12:02;;;;;;;17.00;9.68;;;;;;;23.13;77.20;94573.47;4991956;28;20272;-76
2023/08/26 04:14:30;;;;;;;16.88;10.23;;;;;;;23.59;75.54;94578.56;4992176;28;20365;-77
2023/08/26 04:16:56;;;;;;;18.55;10.13;;;;;;;24.27;72.29;94578.53;4992606;28;20619;-77
2023/08/26 04:19:23;;;;;;;17.10;11.95;;;;;;;24.69;70.29;94577.91;4992227;28;20548;-77
2023/08/26 04:21:50;;;;;;;13.63;9.43;;;;;;;25.21;68.42;94580.25;4992047;28;20233;-77
2023/08/26 04:24:17;;;;;;;14.43;11.70;;;;;;;25.54;67.67;94581.25;4991961;28;20276;-77
2023/08/26 04:26:44;;;;;;;16.20;12.15;;;;;;;25.85;65.85;94576.31;4992262;28;20941;-75
2023/08/26 04:29:10;;;;;;;16.42;11.77;;;;;;;26.24;64.65;94574.75;4991522;28;20240;-76
2023/08/26 04:31:39;;;;;;;14.32;9.73;;;;;;;27.00;62.07;94583.75;4991437;28;20236;-76
2023/08/26 04:34:06;;;;;;;14.85;9.15;;;;;;;27.26;60.36;94582.72;4991752;28;20213;-76
2023/08/26 04:36:32;;;;;;;20.58;10.52;;;;;;;27.39;60.31;94591.91;4991244;28;20292;-77
2023/08/26 04:38:59;;;;;;;17.48;11.75;;;;;;;27.57;59.55;94578.34;4991721;28;20655;-77
2023/08/26 04:41:26;;;;;;;15.05;11.00;;;;;;;27.91;58.49;94579.81;4991603;28;20288;-76
2023/08/26 04:43:54;;;;;;;14.15;9.70;;;;;;;28.43;56.84;94581.53;4991800;28;20205;-78
2023/08/26 04:46:20;;;;;;;15.98;11.07;;;;;;;28.55;56.22;94578.75;4990946;28;20208;-77
2023/08/26 04:48:49;;;;;;;14.48;10.35;;;;;;;28.53;56.48;94581.22;4991815;28;20213;-77
2023/08/26 04:51:15;;;;;;;14.95;10.30;;;;;;;28.89;55.52;94582.91;4991748;28;20202;-77
2023/08/26 04:53:42;;;;;;;23.55;12.00;;;;;;;28.98;54.99;94585.78;4992062;28;20240;-77
2023/08/26 04:56:09;;;;;;;15.75;11.02;;;;;;;29.55;53.51;94581.94;4990930;28;20202;-77
2023/08/26 04:58:37;;;;;;;15.18;10.50;;;;;;;30.17;51.65;94582.16;4990129;28;20566;-77
2023/08/26 05:01:03;;;;;;;19.15;12.15;;;;;;;30.53;50.79;94586.41;4989778;28;20225;-77
2023/08/26 05:03:30;;;;;;;15.27;11.43;;;;;;;30.63;50.69;94590.81;4991023;28;20218;-77
2023/08/26 05:05:58;;;;;;;17.80;10.77;;;;;;;31.15;49.29;94590.00;4991852;28;20206;-76
2023/08/26 05:08:25;;;;;;;13.25;10.48;;;;;;;31.40;48.73;94591.78;4985258;28;20198;-76
2023/08/26 05:10:52;;;;;;;14.43;10.73;;;;;;;32.00;47.04;94582.81;4991728;28;20214;-77
2023/08/26 05:13:19;;;;;;;16.17;11.32;;;;;;;32.19;46.09;94587.19;4991062;28;20225;-77
2023/08/26 05:15:47;;;;;;;16.55;11.85;;;;;;;32.24;46.20;94583.78;4990900;28;20280;-77
2023/08/26 05:18:13;;;;;;;18.35;11.77;;;;;;;32.59;45.51;94589.00;5002469;28;20212;-77
2023/08/26 05:20:44;;;;;;;17.65;11.20;;;;;;;33.33;43.50;94579.09;4991518;28;20213;-77
2023/08/26 05:23:12;;;;;;;15.00;11.32;;;;;;;33.58;42.85;94584.22;4990217;28;20241;-77
2023/08/26 05:25:39;;;;;;;13.70;10.95;;;;;;;33.75;42.20;94581.78;4990634;28;20241;-77
2023/08/26 05:28:06;;;;;;;15.52;10.80;;;;;;;34.36;40.77;94580.22;4988671;28;20986;-77
2023/08/26 05:30:34;;;;;;;14.52;11.10;;;;;;;34.59;39.97;94587.78;4990478;28;20206;-78
2023/08/26 05:33:01;;;;;;;18.83;11.55;;;;;;;33.65;41.47;94588.69;4990725;28;20205;-78
2023/08/26 05:35:29;;;;;;;21.45;11.60;;;;;;;34.84;39.97;94591.31;4990375;28;20206;-78
2023/08/26 05:37:55;;;;;;;13.95;11.18;;;;;;;35.08;39.65;94586.31;4990026;28;20205;-78
2023/08/26 05:40:28;;;;;;;15.93;10.68;;;;;;;34.95;39.48;94590.72;4990689;28;20209;-78
2023/08/26 05:42:56;;;;;;;13.40;11.10;;;;;;;34.40;40.13;94592.06;4989645;28;20205;-78
2023/08/26 05:45:23;;;;;;;16.88;11.48;;;;;;;34.72;39.93;94589.53;4989795;28;20271;-78
2023/08/26 05:47:50;;;;;;;15.15;9.93;;;;;;;35.16;39.26;94583.88;4990300;28;20210;-78
2023/08/26 05:50:18;;;;;;;12.95;10.45;;;;;;;35.33;39.23;94592.59;4989524;28;20240;-77
2023/08/26 05:52:45;;;;;;;17.40;11.18;;;;;;;34.89;38.94;94588.56;4989452;28;20248;-77
2023/08/26 05:55:12;;;;;;;14.00;10.82;;;;;;;34.23;39.91;94588.13;4990606;28;20264;-78
2023/08/26 05:57:42;;;;;;;11.23;9.90;;;;;;;35.52;38.08;94582.66;4990642;28;20659;-78
2023/08/26 06:00:10;;;;;;;13.48;10.50;;;;;;;35.20;37.93;94585.22;4990791;28;20214;-77
2023/08/26 06:02:37;;;;;;;15.35;10.40;;;;;;;34.48;39.06;94581.97;4985695;28;20230;-77
2023/08/26 06:05:05;;;;;;;13.65;10.07;;;;;;;35.08;39.17;94583.50;4984739;28;21243;-77
2023/08/26 06:07:32;;;;;;;15.02;8.20;;;;;;;34.76;37.95;94592.94;4988413;28;20697;-77
2023/08/26 06:09:59;;;;;;;11.52;8.23;;;;;;;35.17;37.91;94577.75;4990652;28;20573;-77
2023/08/26 06:12:25;;;;;;;11.25;8.30;;;;;;;35.23;37.42;94584.25;4990477;28;20297;-76
2023/08/26 06:14:54;;;;;;;10.40;8.57;;;;;;;35.46;36.71;94579.75;4989760;28;20241;-77
2023/08/26 06:17:21;;;;;;;9.88;8.55;;;;;;;34.74;37.33;94581.38;4989970;28;20213;-77
2023/08/26 06:19:47;;;;;;;10.65;8.30;;;;;;;35.07;37.61;94584.78;4989574;28;20213;-77
2023/08/26 06:22:14;;;;;;;14.10;9.48;;;;;;;34.69;38.39;94585.66;4989655;28;20237;-76
2023/08/26 06:24:41;;;;;;;12.02;9.88;;;;;;;33.97;40.23;94584.28;4990523;28;20209;-76
2023/08/26 06:27:08;;;;;;;11.25;9.23;;;;;;;33.29;41.57;94595.34;4990994;28;20264;-76
2023/08/26 06:29:36;;;;;;;14.30;9.65;;;;;;;33.08;41.41;94586.66;4990016;28;20239;-75
2023/08/26 06:32:04;;;;;;;14.02;9.60;;;;;;;33.88;39.84;94585.16;4989927;28;20201;-76
2023/08/26 06:34:31;;;;;;;11.65;9.80;;;;;;;34.62;38.66;94602.16;4996996;28;20214;-76
2023/08/26 06:36:58;;;;;;;14.55;10.20;;;;;;;35.11;38.39;94593.81;4990598;28;20714;-76
2023/08/26 06:39:25;;;;;;;14.43;9.55;;;;;;;34.20;39.83;94603.16;4990339;28;20249;-76
2023/08/26 06:41:51;;;;;;;15.18;9.55;;;;;;;34.17;39.89;94601.28;4991463;28;20621;-76
2023/08/26 06:44:18;;;;;;;16.50;10.23;;;;;;;33.50;41.14;94599.88;4991096;28;20280;-76
2023/08/26 06:46:54;;;;;;;11.45;9.75;;;;;;;33.54;41.13;94600.50;4989749;28;20209;-78
2023/08/26 06:49:28;;;;;;;10.88;9.35;;;;;;;32.77;42.62;94611.44;4994944;28;20259;-77
2023/08/26 06:52:02;;;;;;;12.90;9.68;;;;;;;32.02;43.34;94620.34;4986237;28;20202;-77
2023/08/26 06:54:29;;;;;;;11.45;9.73;;;;;;;32.15;42.92;94623.00;4990059;28;20201;-78
2023/08/26 06:56:56;;;;;;;13.85;9.75;;;;;;;32.62;42.13;94618.91;4989496;28;20209;-75
2023/08/26 06:59:23;;;;;;;17.67;9.52;;;;;;;33.92;39.82;94611.03;4989500;28;20240;-75
2023/08/26 07:01:50;;;;;;;13.20;8.93;;;;;;;33.42;40.94;94605.09;4990625;28;20228;-76
2023/08/26 07:04:16;;;;;;;11.20;8.45;;;;;;;34.16;39.01;94602.56;4982003;28;20205;-74
2023/08/26 07:06:45;;;;;;;12.77;8.48;;;;;;;34.91;38.65;94613.44;4995843;28;20210;-77
2023/08/26 07:09:12;;;;;;;11.88;8.88;;;;;;;35.10;37.37;94603.53;4993558;28;20201;-78
2023/08/26 07:11:39;;;;;;;14.93;8.73;;;;;;;34.71;37.85;94613.34;4997314;28;20209;-78
2023/08/26 07:14:06;;;;;;;11.43;8.98;;;;;;;35.12;37.23;94611.47;4993195;28;20936;-79
2023/08/26 07:16:32;;;;;;;12.23;8.57;;;;;;;35.12;37.44;94601.00;4996785;28;20658;-77
2023/08/26 07:18:59;;;;;;;12.95;8.70;;;;;;;34.18;38.84;94602.84;4994050;28;20628;-76
2023/08/26 07:21:26;;;;;;;15.68;8.60;;;;;;;33.96;38.97;94602.41;4991984;28;20650;-79
2023/08/26 07:23:55;;;;;;;9.60;8.15;;;;;;;35.28;38.06;94597.66;5002201;28;20236;-76
2023/08/26 07:26:22;;;;;;;12.98;7.50;;;;;;;34.11;39.08;94603.22;4993130;28;20264;-78
2023/08/26 07:28:48;;;;;;;12.68;8.18;;;;;;;33.08;39.66;94602.72;4993595;28;20586;-77
2023/08/26 07:31:15;;;;;;;10.30;7.20;;;;;;;32.99;40.53;94602.75;4994503;28;20284;-77
2023/08/26 07:33:42;;;;;;;11.45;8.00;;;;;;;33.43;39.28;94600.25;4995271;28;20202;-76
2023/08/26 07:36:10;;;;;;;10.20;8.20;;;;;;;32.94;40.06;94604.19;4993862;28;20206;-77
2023/08/26 07:38:38;;;;;;;8.45;7.55;;;;;;;33.04;40.42;94605.72;4993578;28;20221;-78
2023/08/26 07:41:06;;;;;;;13.60;8.23;;;;;;;32.53;41.21;94604.91;4995255;28;20288;-77
2023/08/26 07:43:36;;;;;;;10.75;8.32;;;;;;;32.73;41.22;94610.81;4990080;28;20261;-78
2023/08/26 07:46:02;;;;;;;9.40;7.93;;;;;;;32.36;41.33;94610.88;4993524;28;20295;-78
2023/08/26 07:48:32;;;;;;;9.07;7.05;;;;;;;32.43;41.47;94607.72;4992963;28;20205;-77
2023/08/26 07:50:58;;;;;;;13.68;7.80;;;;;;;32.95;40.30;94588.88;4991557;28;20524;-77
2023/08/26 07:53:25;;;;;;;9.85;7.63;;;;;;;32.53;41.20;94596.50;4995337;28;20737;-77
2023/08/26 07:55:52;;;;;;;10.77;7.57;;;;;;;32.63;41.38;94590.38;4991935;28;20202;-77
2023/08/26 07:58:20;;;;;;;10.30;8.25;;;;;;;32.77;40.69;94594.59;4994454;28;20221;-78
2023/08/26 08:00:47;;;;;;;11.38;7.82;;;;;;;32.34;41.34;94596.53;4992539;28;20622;-76
2023/08/26 08:03:14;;;;;;;13.07;8.20;;;;;;;32.06;42.26;94581.72;4992418;28;20650;-74
2023/08/26 08:05:41;;;;;;;11.88;7.45;;;;;;;32.75;41.63;94580.25;4991492;28;20284;-75
2023/08/26 08:08:07;;;;;;;11.38;7.78;;;;;;;32.99;40.46;94581.09;4992301;28;20209;-77
2023/08/26 08:10:34;;;;;;;10.52;7.50;;;;;;;32.59;41.97;94584.16;4992412;28;20284;-78
2023/08/26 08:13:01;;;;;;;10.82;8.07;;;;;;;31.84;41.99;94585.94;4992731;28;20252;-76
2023/08/26 08:15:29;;;;;;;9.63;8.20;;;;;;;31.28;43.41;94578.69;4997067;28;20302;-75
2023/08/26 08:17:56;;;;;;;9.20;8.18;;;;;;;31.61;42.15;94574.06;5000435;28;20341;-75
2023/08/26 08:20:22;;;;;;;11.60;8.10;;;;;;;32.40;40.79;94572.19;4992002;28;20218;-76
2023/08/26 08:22:49;;;;;;;12.73;8.20;;;;;;;33.00;39.87;94571.41;4992993;28;20633;-77
2023/08/26 08:25:16;;;;;;;11.07;8.73;;;;;;;32.62;40.48;94568.41;4992592;28;20283;-77
2023/08/26 08:27:43;;;;;;;12.90;8.50;;;;;;;31.11;42.92;94569.75;4992559;28;20218;-80
2023/08/26 08:30:10;;;;;;;11.32;8.32;;;;;;;30.98;43.58;94564.25;4991976;28;20217;-77
2023/08/26 08:32:39;;;;;;;11.05;8.50;;;;;;;31.67;42.53;94557.44;4993053;28;20210;-76
2023/08/26 08:35:07;;;;;;;10.32;8.95;;;;;;;31.15;43.55;94564.03;4991703;28;20214;-76
2023/08/26 08:37:34;;;;;;;11.13;8.15;;;;;;;31.19;43.51;94554.22;4992719;28;20221;-76
2023/08/26 08:40:01;;;;;;;11.63;8.35;;;;;;;31.40;43.67;94563.78;4992285;28;20698;-75
2023/08/26 08:42:28;;;;;;;11.38;8.68;;;;;;;31.59;42.91;94559.72;4992635;28;20868;-75
2023/08/26 08:44:57;;;;;;;13.23;8.88;;;;;;;31.56;42.50;94571.88;4991669;28;20206;-76
2023/08/26 08:47:24;;;;;;;10.48;8.45;;;;;;;31.46;42.61;94556.28;4992399;28;20360;-77
2023/08/26 08:49:53;;;;;;;11.88;9.27;;;;;;;31.82;41.94;94566.78;4978821;28;20593;-76
2023/08/26 08:52:20;;;;;;;10.70;9.10;;;;;;;31.48;42.20;94565.00;4991777;28;20622;-78
2023/08/26 08:54:47;;;;;;;10.93;8.50;;;;;;;31.97;41.68;94566.94;4992047;28;20228;-77
2023/08/26 08:57:16;;;;;;;9.23;8.32;;;;;;;31.82;42.03;94560.41;4991636;28;20242;-78
2023/08/26 08:59:45;;;;;;;9.70;7.63;;;;;;;32.14;42.75;94559.75;4991263;28;20237;-76
2023/08/26 09:02:13;;;;;;;8.77;7.88;;;;;;;31.60;43.45;94555.69;4991242;28;20218;-76
2023/08/26 09:04:41;;;;;;;10.10;8.27;;;;;;;31.36;43.25;94546.34;4991711;28;20284;-76
2023/08/26 09:07:12;;;;;;;11.07;8.70;;;;;;;31.39;43.09;94553.81;4991117;28;20222;-75
2023/08/26 09:09:38;;;;;;;10.68;7.70;;;;;;;31.12;43.62;94556.56;4992019;28;20543;-77
2023/08/26 09:12:06;;;;;;;9.88;8.40;;;;;;;31.77;42.32;94542.97;4990818;28;20209;-74
2023/08/26 09:14:33;;;;;;;9.77;8.45;;;;;;;31.82;41.59;94541.56;4990818;28;20349;-76
2023/08/26 09:17:15;;;;;;;12.45;8.55;;;;;;;31.93;41.65;94550.28;4987340;28;20614;-75
2023/08/26 09:19:52;;;;;;;9.65;7.85;;;;;;;32.25;40.76;94539.69;4985237;28;20429;-75
2023/08/26 09:22:20;;;;;;;10.20;8.30;;;;;;;32.99;39.59;94536.16;4991141;28;20304;-76
2023/08/26 09:24:47;;;;;;;11.93;8.00;;;;;;;32.60;40.67;94545.66;4991201;28;20205;-75
2023/08/26 09:27:16;;;;;;;9.63;8.10;;;;;;;32.13;41.10;94546.97;4990291;28;20220;-75
2023/08/26 09:29:43;;;;;;;8.77;7.82;;;;;;;32.23;40.89;94539.38;4990985;28;20236;-74
2023/08/26 09:32:10;;;;;;;10.05;7.93;;;;;;;32.96;40.71;94528.69;4990959;28;20213;-75
2023/08/26 09:34:37;;;;;;;9.80;8.13;;;;;;;32.97;39.76;94535.84;4989633;28;20210;-75
2023/08/26 09:37:04;;;;;;;8.88;7.82;;;;;;;32.89;40.13;94526.25;4989922;28;20206;-76
2023/08/26 09:39:33;;;;;;;9.05;8.10;;;;;;;32.46;40.41;94531.06;4982478;28;20297;-78
2023/08/26 09:42:00;;;;;;;12.07;8.05;;;;;;;32.63;40.15;94528.66;4990922;28;20213;-75
2023/08/26 09:44:28;;;;;;;10.38;8.00;;;;;;;32.53;40.67;94518.69;4989848;28;20240;-76
2023/08/26 09:46:57;;;;;;;9.45;8.45;;;;;;;32.09;40.69;94524.72;4989387;28;20233;-77
2023/08/26 09:49:23;;;;;;;11.32;7.90;;;;;;;31.97;40.67;94522.88;4987089;28;20297;-76
2023/08/26 09:51:52;;;;;;;8.80;7.90;;;;;;;32.38;39.58;94510.22;4990042;28;20205;-75
2023/08/26 09:54:20;;;;;;;10.00;7.68;;;;;;;32.96;38.88;94506.22;4990300;28;20236;-75
2023/08/26 09:56:49;;;;;;;8.93;7.95;;;;;;;33.67;38.64;94499.84;4987310;28;20217;-75
2023/08/26 09:59:16;;;;;;;11.18;8.05;;;;;;;33.78;37.73;94502.91;4989601;28;20209;-74
2023/08/26 10:01:44;;;;;;;9.05;7.90;;;;;;;33.77;37.45;94506.97;4990362;28;20209;-75
2023/08/26 10:04:12;;;;;;;9.70;7.90;;;;;;;33.75;38.13;94503.84;4989782;28;20635;-75
2023/08/26 10:06:42;;;;;;;10.63;7.63;;;;;;;33.59;35.74;94500.72;4990392;28;20213;-75
2023/08/26 10:09:12;;;;;;;8.25;7.35;;;;;;;33.04;35.37;94507.44;4990590;28;20205;-76
2023/08/26 10:11:44;;;;;;;8.38;7.25;;;;;;;32.92;34.90;94500.03;4990352;28;20201;-77
2023/08/26 10:14:15;;;;;;;8.02;6.75;;;;;;;32.97;36.52;94502.19;4990328;28;20248;-77
2023/08/26 10:16:44;;;;;;;10.02;7.25;;;;;;;32.76;36.73;94492.00;4990490;28;20395;-78
2023/08/26 10:19:11;;;;;;;8.55;7.25;;;;;;;33.08;37.63;94491.19;4986596;28;20225;-75
2023/08/26 10:21:39;;;;;;;11.35;7.45;;;;;;;33.26;36.50;94490.31;4988014;28;20197;-78
2023/08/26 10:24:07;;;;;;;8.95;7.20;;;;;;;33.78;35.57;94488.06;4983681;28;20229;-78
2023/08/26 10:26:35;;;;;;;9.02;7.50;;;;;;;33.60;35.62;94486.19;4990382;28;20202;-78
2023/08/26 10:29:07;;;;;;;10.45;7.72;;;;;;;33.31;36.27;94486.09;4994954;28;20201;-78
2023/08/26 10:31:38;;;;;;;9.98;7.32;;;;;;;33.09;36.16;94486.34;4998443;28;20331;-79
2023/08/26 10:34:14;;;;;;;8.95;7.30;;;;;;;33.05;35.81;94492.16;4989174;28;20297;-79
2023/08/26 10:36:46;;;;;;;10.27;7.03;;;;;;;33.51;35.30;94483.44;5000012;28;20205;-75
2023/08/26 10:39:15;;;;;;;9.20;7.40;;;;;;;33.11;36.80;94479.00;4990631;28;20201;-77
2023/08/26 10:42:12;;;;;;;8.00;7.20;;;;;;;33.11;35.82;94479.00;4996184;28;20224;-77
2023/08/26 10:44:40;;;;;;;10.57;7.82;;;;;;;33.88;34.82;94487.53;4994420;28;20312;-77
2023/08/26 10:47:09;;;;;;;9.43;7.60;;;;;;;33.99;34.64;94484.13;4994605;28;20209;-76
2023/08/26 10:49:36;;;;;;;7.82;7.03;;;;;;;34.26;34.06;94477.47;4992894;28;20212;-77
2023/08/26 10:52:10;;;;;;;8.43;7.53;;;;;;;34.58;33.63;94468.03;4992733;28;20292;-77
2023/08/26 10:54:37;;;;;;;8.90;7.22;;;;;;;35.16;33.48;94466.34;4992098;28;21282;-77
2023/08/26 10:57:07;;;;;;;8.25;6.78;;;;;;;35.37;32.84;94469.19;4990211;28;20565;-79
2023/08/26 10:59:43;;;;;;;9.15;7.15;;;;;;;34.35;34.07;94456.91;4994128;28;20205;-78
2023/08/26 11:02:12;;;;;;;9.93;7.53;;;;;;;33.99;34.46;94464.47;4991075;28;20206;-78
2023/08/26 11:04:42;;;;;;;8.65;7.60;;;;;;;33.93;34.56;94460.75;4998573;28;20229;-76
2023/08/26 11:07:15;;;;;;;10.98;7.63;;;;;;;34.46;34.24;94457.84;4991814;28;20295;-77
2023/08/26 11:09:41;;;;;;;8.25;7.30;;;;;;;34.28;33.87;94463.72;4991057;28;20201;-76
2023/08/26 11:12:24;;;;;;;8.38;7.50;;;;;;;34.61;33.10;94449.38;4990769;28;20654;-76
2023/08/26 11:14:51;;;;;;;7.97;7.18;;;;;;;33.85;33.65;94457.56;4994023;28;20276;-77
2023/08/26 11:17:20;;;;;;;8.38;7.18;;;;;;;34.38;33.55;94453.13;4992229;28;20209;-77
2023/08/26 11:19:46;;;;;;;9.07;8.05;;;;;;;34.86;33.10;94442.34;4993370;28;20348;-78
2023/08/26 11:22:14;;;;;;;8.35;7.55;;;;;;;34.22;33.21;94451.56;4992305;28;20210;-75
2023/08/26 11:24:47;;;;;;;9.68;7.55;;;;;;;33.99;33.15;94449.63;4993068;28;20229;-77
2023/08/26 11:27:14;;;;;;;11.02;7.55;;;;;;;34.31;33.82;94443.03;4987430;28;20210;-76